Terminal Aerodrome Forecast
Issued by NWS

Home | Current Version | Previous Version | Text Only | Print | Product List | Glossary On
Versions: 1 2 3 4 5 6 7 8 9 10 11 12 13 14 15 16 17 18 19 20 21 22 23 24 25 26
832
FTUS43 KLSX 270210 AAA
TAFSUS
TAF AMD
KSUS 270210Z 2702/2724 19007KT 6SM -RA VCTS OVC008CB
      TEMPO 2702/2703 OVC015CB
     FM270300 29010G17KT 6SM -RA BR OVC007
     FM270900 28011G17KT P6SM OVC010
     FM271600 27010KT P6SM BKN040
     FM272000 27008KT P6SM FEW250=

USA.gov is the U.S. government's official web portal to all federal, state and local government web resources and services.